This is the latest recevied weather packets stored in our database for station/object IZ2MHJ-3. If no packets are shown the sender has not sent any weather packets the latest 10 day(s).
| Time | Temp. | Humidity | Pressure | Rain* | Wind** | Luminosity | Snow |
|---|---|---|---|---|---|---|---|
| 1787857227 | 28.89° C | 61% | 1017.9 hPa | - | - | - | - |
| 1787856027 | 30° C | 59% | 1017.8 hPa | - | - | - | - |
| 1787854826 | 30° C | 52% | 1017.6 hPa | - | - | - | - |
| 1787853626 | 30° C | 52% | 1017.7 hPa | - | - | - | - |
| 1787852426 | 30° C | 55% | 1017.9 hPa | - | - | - | - |
| 1787851225 | 30° C | 55% | 1017.7 hPa | - | - | - | - |
| 1787850025 | 30.56° C | 53% | 1017.9 hPa | - | - | - | - |
| 1787848825 | 31.11° C | 51% | 1017.8 hPa | - | - | - | - |
| 1787847624 | 31.11° C | 50% | 1017.9 hPa | - | - | - | - |
| 1787846424 | 31.67° C | 48% | 1017.9 hPa | - | - | - | - |
| 1787845224 | 32.22° C | 47% | 1017.8 hPa | - | - | - | - |
| 1787844024 | 33.33° C | 47% | 1017.7 hPa | - | - | - | - |
| 1787842823 | 33.33° C | 46% | 1017.5 hPa | - | - | - | - |
| 1787841623 | 33.33° C | 46% | 1017.7 hPa | - | - | - | - |
| 1787840423 | 33.89° C | 46% | 1017.4 hPa | - | - | - | - |
| 1787839222 | 36.11° C | 42% | 1017.4 hPa | - | - | - | - |
| 1787838022 | 34.44° C | 44% | 1017.7 hPa | - | - | - | - |
| 1787836822 | 35° C | 44% | 1017.6 hPa | - | - | - | - |
| 1787835621 | 35° C | 44% | 1017.5 hPa | - | - | - | - |
| 1787834421 | 33.33° C | 48% | 1017.9 hPa | - | - | - | - |
| 1787833221 | 35.56° C | 43% | 1017.9 hPa | - | - | - | - |
| 1787832020 | 33.33° C | 50% | 1018.1 hPa | - | - | - | - |
| 1787830820 | 33.33° C | 50% | 1018 hPa | - | - | - | - |
| 1787829620 | 32.78° C | 51% | 1018.3 hPa | - | - | - | - |
| 1787828419 | 33.33° C | 49% | 1018.1 hPa | - | - | - | - |
* Rain since midnight (hover to see other rain measurements)
** Current wind speed in m/s (hover to see current wind gust speed)